Time;durP1;ratioP1;P1;durP2;ratioP2;P2;SDS_P1;SDS_P2;PMS_P1;PMS_P2;Temp;Humidity;BMP_temperature;BMP_pressure;BME280_temperature;BME280_humidity;BME280_pressure;Samples;Min_cycle;Max_cycle;Signal;HPM_P1;HPM_P2
2021/06/10 00:02:03;;;;;;;22.90;19.43;;;20.30;91.40;;;;;;8381375;28;20183;-77
2021/06/10 00:06:05;;;;;;;26.70;18.67;;;20.30;91.40;;;;;;8397127;28;20182;-77
2021/06/10 00:10:10;;;;;;;23.20;18.80;;;20.30;91.40;;;;;;8381194;28;20211;-77
2021/06/10 00:14:12;;;;;;;23.70;17.07;;;20.20;91.20;;;;;;8374776;28;20442;-77
2021/06/10 00:18:13;;;;;;;22.17;17.43;;;20.20;91.20;;;;;;8387809;28;20452;-77
2021/06/10 00:22:14;;;;;;;24.87;17.43;;;20.20;91.20;;;;;;8392517;28;20462;-77
2021/06/10 00:26:14;;;;;;;20.13;17.70;;;20.20;91.20;;;;;;8390707;28;20187;-77
2021/06/10 00:30:17;;;;;;;20.17;17.40;;;20.10;91.20;;;;;;8373035;28;20214;-77
2021/06/10 00:34:18;;;;;;;25.13;15.80;;;20.00;91.20;;;;;;8394114;28;20209;-77
2021/06/10 00:38:19;;;;;;;21.03;16.57;;;20.00;91.20;;;;;;8383142;28;20444;-77
2021/06/10 00:42:21;;;;;;;23.83;16.40;;;19.90;91.10;;;;;;8385193;28;20192;-77
2021/06/10 00:46:24;;;;;;;16.50;14.70;;;19.90;91.00;;;;;;8384407;28;20193;-77
2021/06/10 00:50:38;;;;;;;17.90;15.23;;;19.90;90.80;;;;;;8380820;28;20468;-77
2021/06/10 00:54:39;;;;;;;18.50;13.80;;;19.80;90.70;;;;;;8384204;28;20444;-77
2021/06/10 00:58:42;;;;;;;15.20;13.53;;;19.80;90.60;;;;;;8389330;28;20544;-77
2021/06/10 01:02:46;;;;;;;17.07;13.97;;;19.70;90.50;;;;;;8384637;28;20451;-77
2021/06/10 01:07:00;;;;;;;14.47;13.07;;;19.70;90.40;;;;;;8385146;28;20475;-77
2021/06/10 01:11:37;;;;;;;18.10;13.00;;;19.70;90.30;;;;;;8379236;28;20467;-77
2021/06/10 01:15:41;;;;;;;16.13;13.67;;;19.60;90.40;;;;;;8389612;28;20447;-77
2021/06/10 01:19:42;;;;;;;18.00;14.13;;;19.50;91.10;;;;;;8388127;28;21014;-77
2021/06/10 01:24:07;;;;;;;17.27;13.17;;;19.30;91.50;;;;;;8386471;28;20550;-77
2021/06/10 01:28:12;;;;;;;19.13;13.77;;;19.20;91.80;;;;;;8388600;28;20272;-77
2021/06/10 01:32:13;;;;;;;18.20;14.20;;;19.00;92.30;;;;;;8387843;28;20440;-78
2021/06/10 01:36:17;;;;;;;14.53;11.60;;;18.80;92.80;;;;;;8390471;28;20464;-77
2021/06/10 01:40:22;;;;;;;15.43;12.90;;;18.70;92.90;;;;;;8391820;28;20184;-77
2021/06/10 01:44:24;;;;;;;18.03;13.07;;;18.60;93.00;;;;;;8380761;28;20448;-77
2021/06/10 01:48:25;;;;;;;16.00;11.20;;;18.50;93.00;;;;;;8385535;28;20514;-77
2021/06/10 01:52:27;;;;;;;16.53;12.70;;;18.40;93.10;;;;;;8389438;28;20790;-77
2021/06/10 01:56:29;;;;;;;21.20;11.07;;;18.30;93.00;;;;;;8391138;28;20568;-77
2021/06/10 02:00:30;;;;;;;16.73;10.80;;;18.30;92.80;;;;;;8385994;28;20544;-77
2021/06/10 02:04:32;;;;;;;12.80;11.33;;;18.20;92.80;;;;;;8391526;28;20439;-77
2021/06/10 02:08:33;;;;;;;18.00;12.73;;;18.20;92.90;;;;;;8378129;28;20544;-77
2021/06/10 02:12:34;;;;;;;13.37;11.10;;;18.20;93.10;;;;;;8395893;28;20434;-77
2021/06/10 02:16:39;;;;;;;16.60;12.50;;;18.00;93.40;;;;;;8389329;28;20494;-77
2021/06/10 02:20:41;;;;;;;18.27;11.73;;;18.00;93.50;;;;;;8392595;28;20438;-77
2021/06/10 02:24:41;;;;;;;16.20;12.00;;;17.90;93.30;;;;;;8388070;28;20468;-77
2021/06/10 02:28:42;;;;;;;15.70;10.67;;;17.90;93.10;;;;;;8398875;28;20447;-77
2021/06/10 02:32:43;;;;;;;15.63;11.17;;;17.80;93.00;;;;;;8388774;28;20238;-77
2021/06/10 02:36:46;;;;;;;17.63;11.63;;;17.80;93.10;;;;;;8392158;28;20470;-77
2021/06/10 02:40:50;;;;;;;14.30;11.13;;;17.70;93.20;;;;;;8396220;28;20210;-76
2021/06/10 02:44:52;;;;;;;14.13;9.40;;;17.70;93.00;;;;;;8396372;28;20957;-77
2021/06/10 02:48:55;;;;;;;10.70;9.60;;;17.70;92.90;;;;;;8394123;28;20554;-76
2021/06/10 02:52:58;;;;;;;12.23;10.17;;;17.60;92.70;;;;;;8389910;28;20439;-76
2021/06/10 02:56:59;;;;;;;9.67;8.77;;;17.60;92.80;;;;;;8394870;28;20472;-76
2021/06/10 03:01:04;;;;;;;11.93;9.67;;;17.50;92.80;;;;;;8395515;28;20465;-77
2021/06/10 03:05:07;;;;;;;10.30;9.23;;;17.50;92.90;;;;;;8389207;28;20448;-77
2021/06/10 03:09:08;;;;;;;12.80;8.80;;;17.40;93.00;;;;;;8393143;28;20481;-77
2021/06/10 03:13:14;;;;;;;15.53;8.60;;;17.40;93.30;;;;;;8394127;28;20432;-76
2021/06/10 03:17:17;;;;;;;10.63;9.33;;;17.30;93.40;;;;;;8391995;28;20550;-77
2021/06/10 03:21:19;;;;;;;15.00;10.57;;;17.30;93.30;;;;;;8400225;28;20456;-76
2021/06/10 03:25:22;;;;;;;12.43;9.10;;;17.20;93.80;;;;;;8392514;28;20434;-77
2021/06/10 03:29:22;;;;;;;10.10;9.00;;;17.20;93.90;;;;;;8395208;28;20475;-76
2021/06/10 03:33:26;;;;;;;14.70;10.80;;;17.10;94.10;;;;;;8386914;28;20433;-77
2021/06/10 03:37:28;;;;;;;14.80;11.50;;;17.00;94.30;;;;;;8389690;28;20190;-77
2021/06/10 03:41:30;;;;;;;20.53;12.50;;;16.90;94.10;;;;;;8389840;28;20972;-77
2021/06/10 03:45:31;;;;;;;14.50;11.17;;;16.90;94.60;;;;;;8399834;28;20977;-77
2021/06/10 03:49:32;;;;;;;16.43;11.40;;;16.90;95.30;;;;;;8396441;28;20517;-77
2021/06/10 03:53:33;;;;;;;10.53;9.47;;;16.80;95.30;;;;;;8400058;28;20433;-77
2021/06/10 03:57:35;;;;;;;15.97;11.13;;;16.80;95.50;;;;;;8386283;28;20440;-77
2021/06/10 04:01:36;;;;;;;16.47;11.87;;;16.80;95.50;;;;;;8384639;28;20187;-77
2021/06/10 04:05:37;;;;;;;12.87;9.77;;;16.80;95.40;;;;;;8391985;28;20443;-77
2021/06/10 04:09:38;;;;;;;11.40;9.63;;;16.90;95.70;;;;;;8390469;28;20207;-77
2021/06/10 04:13:39;;;;;;;13.57;10.07;;;16.80;95.60;;;;;;8390046;28;20565;-77
2021/06/10 04:17:39;;;;;;;11.30;9.97;;;16.90;95.90;;;;;;8396987;28;20858;-77
2021/06/10 04:21:40;;;;;;;11.80;10.60;;;16.90;95.70;;;;;;8398852;28;20198;-77
2021/06/10 04:25:41;;;;;;;13.90;9.27;;;17.00;95.70;;;;;;8398123;28;20656;-77
2021/06/10 04:29:41;;;;;;;11.30;10.10;;;17.10;95.60;;;;;;8381215;28;20328;-76
2021/06/10 04:33:44;;;;;;;19.07;11.80;;;17.20;95.10;;;;;;8369701;28;20198;-76
2021/06/10 04:37:45;;;;;;;15.80;11.37;;;17.30;95.40;;;;;;8391220;28;20260;-76
2021/06/10 04:41:45;;;;;;;15.77;11.20;;;17.50;95.70;;;;;;8384859;28;20826;-77
2021/06/10 04:45:46;;;;;;;12.77;10.67;;;17.60;95.40;;;;;;8397222;28;20195;-78
2021/06/10 04:49:47;;;;;;;12.53;11.07;;;17.70;95.30;;;;;;8376254;28;20214;-76
2021/06/10 04:53:47;;;;;;;16.97;14.17;;;17.90;95.10;;;;;;8385925;28;20181;-77
2021/06/10 04:57:48;;;;;;;17.43;14.63;;;18.00;94.80;;;;;;8375489;28;20191;-76
2021/06/10 05:01:49;;;;;;;15.13;13.17;;;18.10;95.00;;;;;;8381024;28;20184;-76
2021/06/10 05:05:50;;;;;;;22.83;13.33;;;18.30;95.00;;;;;;8375230;28;20754;-77
2021/06/10 05:09:51;;;;;;;12.43;11.13;;;18.40;94.40;;;;;;8375231;28;20550;-76
2021/06/10 05:13:51;;;;;;;14.83;11.97;;;18.60;93.80;;;;;;8384185;28;20443;-75
2021/06/10 05:17:52;;;;;;;16.33;12.77;;;18.70;93.50;;;;;;8384792;28;20186;-75
2021/06/10 05:21:53;;;;;;;16.97;13.33;;;18.80;93.40;;;;;;8378651;28;20190;-75
2021/06/10 05:25:54;;;;;;;14.23;12.40;;;18.90;93.70;;;;;;8378683;28;20280;-75
2021/06/10 05:29:58;;;;;;;19.47;14.97;;;19.10;94.00;;;;;;8369022;28;20221;-76
2021/06/10 05:33:59;;;;;;;14.10;12.67;;;19.30;93.90;;;;;;8366084;28;20196;-75
2021/06/10 05:38:00;;;;;;;17.50;11.43;;;19.40;94.20;;;;;;8365558;28;20442;-75
2021/06/10 05:42:00;;;;;;;14.20;10.60;;;19.60;93.80;;;;;;8365889;28;20233;-75
2021/06/10 05:46:04;;;;;;;14.03;8.97;;;19.80;93.50;;;;;;8367973;28;20276;-76
2021/06/10 05:50:05;;;;;;;10.50;9.30;;;20.00;92.90;;;;;;8371235;28;21069;-76
2021/06/10 05:54:06;;;;;;;15.40;8.97;;;20.20;92.70;;;;;;8379903;28;20556;-76
2021/06/10 05:58:07;;;;;;;11.10;9.53;;;20.40;92.60;;;;;;8386471;28;20471;-77
2021/06/10 06:02:08;;;;;;;11.00;8.97;;;20.60;92.70;;;;;;8383135;28;20449;-76
2021/06/10 06:06:09;;;;;;;11.53;9.37;;;20.70;92.60;;;;;;8353358;28;20724;-76
2021/06/10 06:10:11;;;;;;;13.40;9.23;;;21.00;92.30;;;;;;8372328;28;20312;-76
2021/06/10 06:14:12;;;;;;;17.70;10.80;;;21.30;92.10;;;;;;8369971;28;20179;-76
2021/06/10 06:18:13;;;;;;;13.17;8.50;;;21.60;91.50;;;;;;8375294;28;20493;-77
2021/06/10 06:22:14;;;;;;;11.43;8.90;;;22.00;91.20;;;;;;8381267;28;20434;-77
2021/06/10 06:26:15;;;;;;;13.33;8.93;;;22.30;90.90;;;;;;8382627;28;20186;-76
2021/06/10 06:30:17;;;;;;;10.47;8.63;;;22.70;90.10;;;;;;8372373;28;20205;-76
2021/06/10 06:34:17;;;;;;;15.60;8.73;;;23.00;88.60;;;;;;8387605;28;20436;-76
2021/06/10 06:38:18;;;;;;;9.07;8.13;;;23.20;88.30;;;;;;8381703;28;20452;-76
2021/06/10 06:42:19;;;;;;;12.60;8.97;;;23.50;86.50;;;;;;8371857;28;20216;-76
2021/06/10 06:46:22;;;;;;;9.37;7.70;;;23.60;86.30;;;;;;8383435;28;20207;-76
2021/06/10 06:50:23;;;;;;;9.20;8.27;;;23.90;86.20;;;;;;8377173;28;20579;-75
2021/06/10 06:54:26;;;;;;;8.23;6.53;;;24.10;84.70;;;;;;8373860;28;21007;-76
2021/06/10 06:58:29;;;;;;;7.07;6.37;;;24.30;84.70;;;;;;8384191;28;20210;-76
2021/06/10 07:02:30;;;;;;;8.20;6.27;;;24.70;81.50;;;;;;8372912;28;20936;-77
2021/06/10 07:06:31;;;;;;;9.60;6.70;;;24.90;79.50;;;;;;8387355;28;20407;-77
2021/06/10 07:10:34;;;;;;;12.60;7.50;;;25.00;76.90;;;;;;8385301;28;20539;-77
2021/06/10 07:14:36;;;;;;;8.60;7.73;;;25.20;76.10;;;;;;8380561;28;20316;-77
2021/06/10 07:18:36;;;;;;;11.67;8.63;;;25.30;75.80;;;;;;8378967;28;20501;-78
2021/06/10 07:22:38;;;;;;;5.33;4.80;;;25.50;75.80;;;;;;8387976;28;20484;-77
2021/06/10 07:26:40;;;;;;;6.27;4.87;;;25.70;71.20;;;;;;8373962;28;20286;-76
2021/06/10 07:30:41;;;;;;;8.07;4.30;;;25.90;69.20;;;;;;8376143;28;20472;-77
2021/06/10 07:34:44;;;;;;;8.77;6.07;;;25.90;67.60;;;;;;8397124;28;20414;-76
2021/06/10 07:38:45;;;;;;;13.23;9.43;;;26.10;65.50;;;;;;8373967;28;20179;-77
2021/06/10 07:42:46;;;;;;;17.60;11.00;;;26.40;64.40;;;;;;8385281;28;20502;-78
2021/06/10 07:46:46;;;;;;;16.13;10.77;;;26.50;64.80;;;;;;8390082;28;20853;-78
2021/06/10 07:50:47;;;;;;;16.60;10.63;;;26.60;66.60;;;;;;8389905;28;20211;-77
2021/06/10 07:54:48;;;;;;;16.83;11.90;;;26.90;67.40;;;;;;8389997;28;20187;-78
2021/06/10 07:58:50;;;;;;;19.37;12.27;;;27.00;65.80;;;;;;8392855;28;20181;-78
2021/06/10 08:02:57;;;;;;;19.40;12.70;;;27.10;65.60;;;;;;8390990;28;20448;-77
2021/06/10 08:06:58;;;;;;;19.67;11.20;;;27.20;65.60;;;;;;8370758;28;20182;-79
2021/06/10 08:11:05;;;;;;;17.20;12.10;;;27.30;64.70;;;;;;8386594;28;20487;-77
2021/06/10 08:15:07;;;;;;;19.13;10.80;;;27.40;63.40;;;;;;8379774;28;20440;-77
2021/06/10 08:19:08;;;;;;;20.90;11.67;;;27.40;62.90;;;;;;8371531;28;20543;-78
2021/06/10 08:23:08;;;;;;;16.70;10.00;;;27.50;61.40;;;;;;8374774;28;20440;-77
2021/06/10 08:27:09;;;;;;;17.70;11.33;;;27.60;59.80;;;;;;8382924;28;20359;-77
2021/06/10 08:31:10;;;;;;;18.83;9.77;;;27.70;60.30;;;;;;8385214;28;20182;-78
2021/06/10 08:35:12;;;;;;;14.53;11.17;;;27.90;60.60;;;;;;8393170;28;20174;-77
2021/06/10 08:39:13;;;;;;;14.97;10.17;;;28.10;59.50;;;;;;8388152;28;20178;-77
2021/06/10 08:43:14;;;;;;;13.13;9.10;;;28.20;58.00;;;;;;8381637;28;20437;-77
2021/06/10 08:47:20;;;;;;;14.83;9.73;;;28.40;58.10;;;;;;8393512;28;20238;-78
2021/06/10 08:51:21;;;;;;;15.77;10.13;;;28.70;57.70;;;;;;8392758;28;20700;-78
2021/06/10 08:55:25;;;;;;;9.33;7.20;;;28.80;57.90;;;;;;8387459;28;20514;-78
2021/06/10 08:59:26;;;;;;;11.30;7.23;;;29.10;57.60;;;;;;8392585;28;20265;-77
2021/06/10 09:03:29;;;;;;;11.37;8.60;;;29.60;56.70;;;;;;8374055;28;20502;-77
2021/06/10 09:07:34;;;;;;;10.87;9.17;;;30.30;54.50;;;;;;8378127;28;20347;-78
2021/06/10 09:11:38;;;;;;;11.87;7.70;;;31.00;52.90;;;;;;8387880;28;20441;-77
2021/06/10 09:15:41;;;;;;;12.40;7.83;;;31.50;52.60;;;;;;8387010;28;20446;-78
2021/06/10 09:19:44;;;;;;;9.93;7.83;;;31.70;52.20;;;;;;8381179;28;20945;-78
2021/06/10 09:23:46;;;;;;;8.60;7.50;;;32.00;51.60;;;;;;8388339;28;20433;-81
2021/06/10 09:27:53;;;;;;;11.10;9.23;;;32.10;50.70;;;;;;8378994;28;21663;-79
2021/06/10 09:31:55;;;;;;;7.50;6.70;;;32.20;49.70;;;;;;8389799;28;20469;-77
2021/06/10 09:35:56;;;;;;;8.07;6.33;;;32.50;50.10;;;;;;8379509;28;20433;-77
2021/06/10 09:39:57;;;;;;;13.47;7.17;;;32.70;49.80;;;;;;8373788;28;20455;-76
2021/06/10 09:43:58;;;;;;;13.80;5.93;;;32.90;48.50;;;;;;8369887;28;20508;-78
2021/06/10 09:48:01;;;;;;;9.53;5.93;;;33.10;48.00;;;;;;8369861;28;20215;-77
2021/06/10 09:52:02;;;;;;;7.47;6.20;;;33.20;47.90;;;;;;8369674;28;20186;-77
2021/06/10 09:56:08;;;;;;;9.20;7.70;;;33.40;47.00;;;;;;8379148;28;20183;-78
2021/06/10 10:00:09;;;;;;;21.37;6.50;;;33.40;46.40;;;;;;8394371;28;20236;-77
2021/06/10 10:04:10;;;;;;;7.37;6.70;;;33.00;47.90;;;;;;8381541;28;20182;-77
2021/06/10 10:08:14;;;;;;;6.97;6.10;;;33.00;48.00;;;;;;8375564;28;20202;-78
2021/06/10 10:12:15;;;;;;;4.50;4.20;;;33.10;47.70;;;;;;8384811;28;20184;-77
2021/06/10 10:16:24;;;;;;;4.00;3.63;;;33.50;45.40;;;;;;8384895;28;20182;-78
2021/06/10 10:20:24;;;;;;;4.23;3.83;;;33.50;45.50;;;;;;8375662;28;20198;-78
2021/06/10 10:24:26;;;;;;;4.73;4.20;;;33.70;45.40;;;;;;8380302;28;20191;-74
